sensor_id;sensor_type;location;lat;lon;timestamp;noise_LAeq;noise_LA_min;noise_LA_max;noise_LA01;noise_LA95
67298;Laerm;65443;51.436;5.978;2023-05-10T00:00:02;35.79;33.41;42.77;;
67298;Laerm;65443;51.436;5.978;2023-05-10T00:00:14;62.77;33.49;78.05;;
67298;Laerm;65443;51.436;5.978;2023-05-10T00:00:25;35.85;33.29;49.07;;
67298;Laerm;65443;51.436;5.978;2023-05-10T00:00:35;37.55;33.50;57.51;;
67298;Laerm;65443;51.436;5.978;2023-05-10T00:00:45;35.25;33.32;40.04;;
67298;Laerm;65443;51.436;5.978;2023-05-10T00:00:56;35.24;33.24;41.22;;
67298;Laerm;65443;51.436;5.978;2023-05-10T00:01:07;37.18;33.12;55.63;;
67298;Laerm;65443;51.436;5.978;2023-05-10T00:01:17;35.90;32.97;50.93;;
67298;Laerm;65443;51.436;5.978;2023-05-10T00:01:27;35.85;33.57;48.50;;
67298;Laerm;65443;51.436;5.978;2023-05-10T00:01:38;35.77;33.81;40.99;;
67298;Laerm;65443;51.436;5.978;2023-05-10T00:01:48;36.28;33.70;44.23;;
67298;Laerm;65443;51.436;5.978;2023-05-10T00:01:58;59.51;33.83;69.42;;
67298;Laerm;65443;51.436;5.978;2023-05-10T00:02:09;66.30;60.53;70.34;;
67298;Laerm;65443;51.436;5.978;2023-05-10T00:02:19;63.85;59.50;67.23;;
67298;Laerm;65443;51.436;5.978;2023-05-10T00:02:29;63.46;57.67;67.04;;
67298;Laerm;65443;51.436;5.978;2023-05-10T00:02:39;65.10;60.07;68.36;;
67298;Laerm;65443;51.436;5.978;2023-05-10T00:02:50;74.00;60.07;81.07;;
67298;Laerm;65443;51.436;5.978;2023-05-10T00:03:00;79.39;75.50;84.36;;
67298;Laerm;65443;51.436;5.978;2023-05-10T00:03:11;79.78;75.11;83.30;;
67298;Laerm;65443;51.436;5.978;2023-05-10T00:03:21;83.01;58.40;91.15;;
67298;Laerm;65443;51.436;5.978;2023-05-10T00:03:31;58.27;43.10;67.69;;
67298;Laerm;65443;51.436;5.978;2023-05-10T00:03:42;41.42;37.46;45.14;;
67298;Laerm;65443;51.436;5.978;2023-05-10T00:03:52;37.11;34.68;45.39;;
67298;Laerm;65443;51.436;5.978;2023-05-10T00:04:02;36.77;32.78;56.38;;
67298;Laerm;65443;51.436;5.978;2023-05-10T00:04:13;34.21;32.70;40.22;;
67298;Laerm;65443;51.436;5.978;2023-05-10T00:04:23;34.83;32.56;48.56;;
67298;Laerm;65443;51.436;5.978;2023-05-10T00:04:37;34.28;32.44;43.78;;
67298;Laerm;65443;51.436;5.978;2023-05-10T00:04:47;34.26;32.48;42.47;;
67298;Laerm;65443;51.436;5.978;2023-05-10T00:04:58;34.31;32.70;40.88;;
67298;Laerm;65443;51.436;5.978;2023-05-10T00:05:08;33.82;32.28;38.68;;
67298;Laerm;65443;51.436;5.978;2023-05-10T00:05:19;34.30;32.35;42.61;;
67298;Laerm;65443;51.436;5.978;2023-05-10T00:05:29;33.65;31.89;38.17;;
67298;Laerm;65443;51.436;5.978;2023-05-10T00:05:39;34.18;31.88;43.34;;
67298;Laerm;65443;51.436;5.978;2023-05-10T00:05:50;34.05;32.42;41.45;;
67298;Laerm;65443;51.436;5.978;2023-05-10T00:06:00;33.53;31.88;41.39;;
67298;Laerm;65443;51.436;5.978;2023-05-10T00:06:11;33.62;31.60;42.28;;
67298;Laerm;65443;51.436;5.978;2023-05-10T00:06:22;33.19;31.20;40.35;;
67298;Laerm;65443;51.436;5.978;2023-05-10T00:06:32;33.37;31.57;38.50;;
67298;Laerm;65443;51.436;5.978;2023-05-10T00:06:42;33.10;31.87;40.10;;
67298;Laerm;65443;51.436;5.978;2023-05-10T00:06:53;33.62;31.26;46.62;;
67298;Laerm;65443;51.436;5.978;2023-05-10T00:07:03;33.26;31.78;41.00;;
67298;Laerm;65443;51.436;5.978;2023-05-10T00:07:13;34.15;31.10;52.61;;
67298;Laerm;65443;51.436;5.978;2023-05-10T00:07:24;32.93;31.43;36.92;;
67298;Laerm;65443;51.436;5.978;2023-05-10T00:07:35;66.53;32.18;71.82;;
67298;Laerm;65443;51.436;5.978;2023-05-10T00:07:45;65.10;60.15;71.22;;
67298;Laerm;65443;51.436;5.978;2023-05-10T00:07:55;65.05;60.28;67.54;;
67298;Laerm;65443;51.436;5.978;2023-05-10T00:08:06;64.42;60.28;67.31;;
67298;Laerm;65443;51.436;5.978;2023-05-10T00:08:16;64.18;60.01;66.78;;
67298;Laerm;65443;51.436;5.978;2023-05-10T00:08:26;75.64;60.69;81.31;;
67298;Laerm;65443;51.436;5.978;2023-05-10T00:08:36;76.39;73.76;81.11;;
67298;Laerm;65443;51.436;5.978;2023-05-10T00:08:47;76.39;73.64;81.13;;
67298;Laerm;65443;51.436;5.978;2023-05-10T00:08:57;67.30;42.61;78.31;;
67298;Laerm;65443;51.436;5.978;2023-05-10T00:09:07;41.35;36.42;53.97;;
67298;Laerm;65443;51.436;5.978;2023-05-10T00:09:18;36.40;33.73;41.47;;
67298;Laerm;65443;51.436;5.978;2023-05-10T00:09:28;33.88;32.13;39.74;;
67298;Laerm;65443;51.436;5.978;2023-05-10T00:09:38;33.30;31.79;36.73;;
67298;Laerm;65443;51.436;5.978;2023-05-10T00:09:48;33.12;31.72;36.26;;
67298;Laerm;65443;51.436;5.978;2023-05-10T00:09:59;33.29;31.17;46.33;;
67298;Laerm;65443;51.436;5.978;2023-05-10T00:10:10;33.14;31.35;38.92;;
67298;Laerm;65443;51.436;5.978;2023-05-10T00:10:20;33.47;31.24;37.42;;
67298;Laerm;65443;51.436;5.978;2023-05-10T00:10:30;32.72;31.34;42.06;;
67298;Laerm;65443;51.436;5.978;2023-05-10T00:10:40;32.84;30.93;42.30;;
67298;Laerm;65443;51.436;5.978;2023-05-10T00:10:52;32.91;31.04;42.10;;
67298;Laerm;65443;51.436;5.978;2023-05-10T00:11:03;32.51;30.76;40.37;;
67298;Laerm;65443;51.436;5.978;2023-05-10T00:11:13;32.68;31.19;40.75;;
67298;Laerm;65443;51.436;5.978;2023-05-10T00:11:23;32.55;31.19;37.85;;
67298;Laerm;65443;51.436;5.978;2023-05-10T00:11:34;32.80;30.73;43.91;;
67298;Laerm;65443;51.436;5.978;2023-05-10T00:11:44;32.59;30.72;40.94;;
67298;Laerm;65443;51.436;5.978;2023-05-10T00:11:55;32.59;31.27;36.99;;
67298;Laerm;65443;51.436;5.978;2023-05-10T00:12:05;32.75;30.85;35.34;;
67298;Laerm;65443;51.436;5.978;2023-05-10T00:12:15;32.39;30.90;39.21;;
67298;Laerm;65443;51.436;5.978;2023-05-10T00:12:26;32.73;31.05;37.73;;
67298;Laerm;65443;51.436;5.978;2023-05-10T00:12:36;32.74;31.03;40.47;;
67298;Laerm;65443;51.436;5.978;2023-05-10T00:12:47;32.62;30.72;43.92;;
67298;Laerm;65443;51.436;5.978;2023-05-10T00:12:57;32.64;30.75;39.88;;
67298;Laerm;65443;51.436;5.978;2023-05-10T00:13:07;32.92;31.02;36.90;;
67298;Laerm;65443;51.436;5.978;2023-05-10T00:13:17;32.81;31.25;38.71;;
67298;Laerm;65443;51.436;5.978;2023-05-10T00:13:28;63.55;31.50;71.05;;
67298;Laerm;65443;51.436;5.978;2023-05-10T00:13:38;66.64;60.14;72.14;;
67298;Laerm;65443;51.436;5.978;2023-05-10T00:13:48;63.89;59.36;66.65;;
67298;Laerm;65443;51.436;5.978;2023-05-10T00:13:58;62.73;58.14;66.35;;
67298;Laerm;65443;51.436;5.978;2023-05-10T00:14:09;62.49;56.95;65.18;;
67298;Laerm;65443;51.436;5.978;2023-05-10T00:14:19;74.43;57.25;82.04;;
67298;Laerm;65443;51.436;5.978;2023-05-10T00:14:29;80.96;77.17;86.30;;
67298;Laerm;65443;51.436;5.978;2023-05-10T00:14:40;76.82;73.49;81.89;;
67298;Laerm;65443;51.436;5.978;2023-05-10T00:14:50;71.30;59.50;78.05;;
67298;Laerm;65443;51.436;5.978;2023-05-10T00:15:01;59.06;36.00;69.53;;
67298;Laerm;65443;51.436;5.978;2023-05-10T00:15:11;35.49;32.57;40.58;;
67298;Laerm;65443;51.436;5.978;2023-05-10T00:15:21;32.89;31.23;39.67;;
67298;Laerm;65443;51.436;5.978;2023-05-10T00:15:32;32.04;30.65;35.70;;
67298;Laerm;65443;51.436;5.978;2023-05-10T00:15:42;32.27;30.50;41.94;;
67298;Laerm;65443;51.436;5.978;2023-05-10T00:15:52;32.21;30.82;36.26;;
67298;Laerm;65443;51.436;5.978;2023-05-10T00:16:03;32.59;30.53;47.27;;
67298;Laerm;65443;51.436;5.978;2023-05-10T00:16:13;31.97;30.20;37.77;;
67298;Laerm;65443;51.436;5.978;2023-05-10T00:16:23;32.17;30.58;38.15;;
67298;Laerm;65443;51.436;5.978;2023-05-10T00:16:34;32.16;30.56;40.63;;
67298;Laerm;65443;51.436;5.978;2023-05-10T00:16:44;31.91;30.37;35.27;;
67298;Laerm;65443;51.436;5.978;2023-05-10T00:16:54;32.21;30.17;43.78;;
67298;Laerm;65443;51.436;5.978;2023-05-10T00:17:04;32.14;30.63;37.56;;
67298;Laerm;65443;51.436;5.978;2023-05-10T00:17:15;62.96;31.23;71.29;;
67298;Laerm;65443;51.436;5.978;2023-05-10T00:17:25;67.55;60.04;71.96;;
67298;Laerm;65443;51.436;5.978;2023-05-10T00:17:35;64.65;60.52;67.55;;
67298;Laerm;65443;51.436;5.978;2023-05-10T00:17:46;65.14;60.78;68.02;;
67298;Laerm;65443;51.436;5.978;2023-05-10T00:17:56;64.06;59.45;67.19;;
67298;Laerm;65443;51.436;5.978;2023-05-10T00:18:06;73.72;60.20;81.54;;
67298;Laerm;65443;51.436;5.978;2023-05-10T00:18:17;77.64;72.36;82.76;;
67298;Laerm;65443;51.436;5.978;2023-05-10T00:18:27;75.29;67.81;80.83;;
67298;Laerm;65443;51.436;5.978;2023-05-10T00:18:37;62.22;38.85;70.34;;
67298;Laerm;65443;51.436;5.978;2023-05-10T00:18:48;37.26;34.00;40.55;;
67298;Laerm;65443;51.436;5.978;2023-05-10T00:18:58;33.74;31.77;38.44;;
67298;Laerm;65443;51.436;5.978;2023-05-10T00:19:08;32.56;30.95;37.42;;
67298;Laerm;65443;51.436;5.978;2023-05-10T00:19:19;31.97;30.13;38.84;;
67298;Laerm;65443;51.436;5.978;2023-05-10T00:19:29;32.03;30.26;38.64;;
67298;Laerm;65443;51.436;5.978;2023-05-10T00:19:39;32.20;30.52;40.56;;
67298;Laerm;65443;51.436;5.978;2023-05-10T00:19:49;31.66;29.98;37.59;;
67298;Laerm;65443;51.436;5.978;2023-05-10T00:20:00;31.70;30.37;37.92;;
67298;Laerm;65443;51.436;5.978;2023-05-10T00:20:10;31.47;30.04;35.95;;
67298;Laerm;65443;51.436;5.978;2023-05-10T00:20:20;32.75;30.07;45.23;;
67298;Laerm;65443;51.436;5.978;2023-05-10T00:20:31;31.56;29.99;33.74;;
67298;Laerm;65443;51.436;5.978;2023-05-10T00:20:41;61.45;30.52;71.04;;
67298;Laerm;65443;51.436;5.978;2023-05-10T00:20:51;67.65;59.61;71.51;;
67298;Laerm;65443;51.436;5.978;2023-05-10T00:21:02;62.79;57.42;66.31;;
67298;Laerm;65443;51.436;5.978;2023-05-10T00:21:12;63.47;58.55;66.88;;
67298;Laerm;65443;51.436;5.978;2023-05-10T00:21:22;65.06;60.63;67.93;;
67298;Laerm;65443;51.436;5.978;2023-05-10T00:21:33;82.63;63.44;89.64;;
67298;Laerm;65443;51.436;5.978;2023-05-10T00:21:43;84.13;75.65;89.00;;
67298;Laerm;65443;51.436;5.978;2023-05-10T00:21:54;66.39;46.36;76.64;;
67298;Laerm;65443;51.436;5.978;2023-05-10T00:22:04;43.50;37.16;48.16;;
67298;Laerm;65443;51.436;5.978;2023-05-10T00:22:14;35.72;32.66;39.95;;
67298;Laerm;65443;51.436;5.978;2023-05-10T00:22:24;32.37;30.54;37.00;;
67298;Laerm;65443;51.436;5.978;2023-05-10T00:22:35;31.86;30.16;43.97;;
67298;Laerm;65443;51.436;5.978;2023-05-10T00:22:45;31.33;29.75;37.01;;
67298;Laerm;65443;51.436;5.978;2023-05-10T00:22:55;31.47;29.88;38.00;;
67298;Laerm;65443;51.436;5.978;2023-05-10T00:23:06;31.32;29.75;36.23;;
67298;Laerm;65443;51.436;5.978;2023-05-10T00:23:16;31.44;30.13;36.30;;
67298;Laerm;65443;51.436;5.978;2023-05-10T00:23:26;31.42;29.96;34.04;;
67298;Laerm;65443;51.436;5.978;2023-05-10T00:23:36;31.50;29.73;39.85;;
67298;Laerm;65443;51.436;5.978;2023-05-10T00:23:47;31.52;29.98;35.85;;
67298;Laerm;65443;51.436;5.978;2023-05-10T00:23:57;31.46;30.23;33.85;;
67298;Laerm;65443;51.436;5.978;2023-05-10T00:24:08;31.54;30.27;36.35;;
67298;Laerm;65443;51.436;5.978;2023-05-10T00:24:18;31.36;29.93;35.39;;
67298;Laerm;65443;51.436;5.978;2023-05-10T00:24:28;31.22;30.05;34.98;;
67298;Laerm;65443;51.436;5.978;2023-05-10T00:24:39;55.34;30.05;70.63;;
67298;Laerm;65443;51.436;5.978;2023-05-10T00:24:49;67.24;59.47;72.77;;
67298;Laerm;65443;51.436;5.978;2023-05-10T00:24:59;64.51;58.17;71.16;;
67298;Laerm;65443;51.436;5.978;2023-05-10T00:25:10;64.63;57.83;67.50;;
67298;Laerm;65443;51.436;5.978;2023-05-10T00:25:20;63.67;56.99;67.83;;
67298;Laerm;65443;51.436;5.978;2023-05-10T00:25:31;72.72;57.86;81.54;;
67298;Laerm;65443;51.436;5.978;2023-05-10T00:25:42;76.18;72.97;79.57;;
67298;Laerm;65443;51.436;5.978;2023-05-10T00:25:52;75.68;62.37;80.40;;
67298;Laerm;65443;51.436;5.978;2023-05-10T00:26:02;59.85;41.38;68.40;;
67298;Laerm;65443;51.436;5.978;2023-05-10T00:26:13;60.04;43.45;65.80;;
67298;Laerm;65443;51.436;5.978;2023-05-10T00:26:23;49.42;40.69;61.49;;
67298;Laerm;65443;51.436;5.978;2023-05-10T00:26:33;38.65;34.44;45.85;;
67298;Laerm;65443;51.436;5.978;2023-05-10T00:26:44;34.35;32.30;35.84;;
67298;Laerm;65443;51.436;5.978;2023-05-10T00:26:54;33.22;31.34;37.01;;
67298;Laerm;65443;51.436;5.978;2023-05-10T00:27:05;32.24;31.03;36.33;;
67298;Laerm;65443;51.436;5.978;2023-05-10T00:27:15;32.25;30.68;36.54;;
67298;Laerm;65443;51.436;5.978;2023-05-10T00:27:25;31.96;30.45;35.97;;
67298;Laerm;65443;51.436;5.978;2023-05-10T00:27:35;31.87;30.04;44.38;;
67298;Laerm;65443;51.436;5.978;2023-05-10T00:27:46;31.69;30.32;34.25;;
67298;Laerm;65443;51.436;5.978;2023-05-10T00:27:56;31.67;30.46;35.89;;
67298;Laerm;65443;51.436;5.978;2023-05-10T00:28:07;31.41;29.86;35.56;;
67298;Laerm;65443;51.436;5.978;2023-05-10T00:28:17;31.31;29.46;34.68;;
67298;Laerm;65443;51.436;5.978;2023-05-10T00:28:28;31.25;29.97;36.68;;
67298;Laerm;65443;51.436;5.978;2023-05-10T00:28:38;31.35;29.79;37.77;;
67298;Laerm;65443;51.436;5.978;2023-05-10T00:28:49;31.52;29.91;41.33;;
67298;Laerm;65443;51.436;5.978;2023-05-10T00:28:59;31.77;30.08;43.38;;
67298;Laerm;65443;51.436;5.978;2023-05-10T00:29:09;31.78;30.33;36.21;;
67298;Laerm;65443;51.436;5.978;2023-05-10T00:29:20;31.75;30.24;39.09;;
67298;Laerm;65443;51.436;5.978;2023-05-10T00:29:30;31.42;29.97;34.76;;
67298;Laerm;65443;51.436;5.978;2023-05-10T00:29:41;31.68;30.20;38.29;;
67298;Laerm;65443;51.436;5.978;2023-05-10T00:29:52;31.84;30.51;35.30;;
67298;Laerm;65443;51.436;5.978;2023-05-10T00:30:02;32.23;30.63;34.87;;
67298;Laerm;65443;51.436;5.978;2023-05-10T00:30:12;32.00;30.82;34.18;;
67298;Laerm;65443;51.436;5.978;2023-05-10T00:30:23;31.95;30.22;35.95;;
67298;Laerm;65443;51.436;5.978;2023-05-10T00:30:33;32.04;30.41;36.19;;
67298;Laerm;65443;51.436;5.978;2023-05-10T00:30:43;62.09;30.75;70.63;;
67298;Laerm;65443;51.436;5.978;2023-05-10T00:30:54;66.70;60.04;71.42;;
67298;Laerm;65443;51.436;5.978;2023-05-10T00:31:04;65.18;58.98;75.30;;
67298;Laerm;65443;51.436;5.978;2023-05-10T00:31:14;64.08;59.58;67.11;;
67298;Laerm;65443;51.436;5.978;2023-05-10T00:31:25;65.92;60.38;73.36;;
67298;Laerm;65443;51.436;5.978;2023-05-10T00:31:35;80.40;71.81;84.15;;
67298;Laerm;65443;51.436;5.978;2023-05-10T00:31:46;83.52;79.65;87.39;;
67298;Laerm;65443;51.436;5.978;2023-05-10T00:31:56;80.39;59.79;87.53;;
67298;Laerm;65443;51.436;5.978;2023-05-10T00:32:06;60.74;40.78;69.49;;
67298;Laerm;65443;51.436;5.978;2023-05-10T00:32:16;38.98;33.97;48.66;;
67298;Laerm;65443;51.436;5.978;2023-05-10T00:32:27;33.67;31.00;36.46;;
67298;Laerm;65443;51.436;5.978;2023-05-10T00:32:37;32.43;29.93;45.04;;
67298;Laerm;65443;51.436;5.978;2023-05-10T00:32:47;31.37;30.13;33.76;;
67298;Laerm;65443;51.436;5.978;2023-05-10T00:32:59;31.38;29.99;36.32;;
67298;Laerm;65443;51.436;5.978;2023-05-10T00:33:10;31.16;29.74;35.35;;
67298;Laerm;65443;51.436;5.978;2023-05-10T00:33:21;31.06;29.54;35.54;;
67298;Laerm;65443;51.436;5.978;2023-05-10T00:33:32;31.12;29.72;37.10;;
67298;Laerm;65443;51.436;5.978;2023-05-10T00:33:42;31.12;29.80;38.23;;
67298;Laerm;65443;51.436;5.978;2023-05-10T00:33:52;31.27;29.86;39.08;;
67298;Laerm;65443;51.436;5.978;2023-05-10T00:34:03;31.37;29.78;37.27;;
67298;Laerm;65443;51.436;5.978;2023-05-10T00:34:13;31.51;29.99;37.34;;
67298;Laerm;65443;51.436;5.978;2023-05-10T00:34:23;31.64;29.90;34.82;;
67298;Laerm;65443;51.436;5.978;2023-05-10T00:34:34;32.10;30.08;41.52;;
67298;Laerm;65443;51.436;5.978;2023-05-10T00:34:44;31.86;30.11;37.69;;
67298;Laerm;65443;51.436;5.978;2023-05-10T00:34:55;31.74;29.88;43.20;;
67298;Laerm;65443;51.436;5.978;2023-05-10T00:35:05;31.52;30.08;35.18;;
67298;Laerm;65443;51.436;5.978;2023-05-10T00:35:16;31.39;29.99;35.25;;
67298;Laerm;65443;51.436;5.978;2023-05-10T00:35:26;31.54;29.88;36.08;;
67298;Laerm;65443;51.436;5.978;2023-05-10T00:35:36;31.77;29.98;40.55;;
67298;Laerm;65443;51.436;5.978;2023-05-10T00:35:48;31.52;30.02;37.15;;
67298;Laerm;65443;51.436;5.978;2023-05-10T00:35:58;31.73;30.15;39.75;;
67298;Laerm;65443;51.436;5.978;2023-05-10T00:36:08;32.51;30.36;49.37;;
67298;Laerm;65443;51.436;5.978;2023-05-10T00:36:18;31.73;30.28;40.53;;
67298;Laerm;65443;51.436;5.978;2023-05-10T00:36:29;31.81;30.27;39.44;;
67298;Laerm;65443;51.436;5.978;2023-05-10T00:36:39;31.54;30.08;35.87;;
67298;Laerm;65443;51.436;5.978;2023-05-10T00:36:50;31.49;30.07;36.49;;
67298;Laerm;65443;51.436;5.978;2023-05-10T00:37:00;31.60;30.18;38.71;;
67298;Laerm;65443;51.436;5.978;2023-05-10T00:37:10;31.86;30.45;37.18;;
67298;Laerm;65443;51.436;5.978;2023-05-10T00:37:21;31.44;30.13;37.09;;
67298;Laerm;65443;51.436;5.978;2023-05-10T00:37:31;31.76;30.35;39.16;;
67298;Laerm;65443;51.436;5.978;2023-05-10T00:37:42;34.10;30.65;50.47;;
67298;Laerm;65443;51.436;5.978;2023-05-10T00:37:52;38.71;33.27;43.33;;
67298;Laerm;65443;51.436;5.978;2023-05-10T00:38:02;45.29;38.99;51.79;;
67298;Laerm;65443;51.436;5.978;2023-05-10T00:38:12;56.27;46.20;60.16;;
67298;Laerm;65443;51.436;5.978;2023-05-10T00:38:23;66.01;57.20;70.98;;
67298;Laerm;65443;51.436;5.978;2023-05-10T00:38:33;59.47;44.76;69.01;;
67298;Laerm;65443;51.436;5.978;2023-05-10T00:38:43;41.40;36.31;50.05;;
67298;Laerm;65443;51.436;5.978;2023-05-10T00:38:54;35.60;32.48;47.43;;
67298;Laerm;65443;51.436;5.978;2023-05-10T00:39:04;32.81;31.11;39.79;;
67298;Laerm;65443;51.436;5.978;2023-05-10T00:39:14;32.23;30.55;38.93;;
67298;Laerm;65443;51.436;5.978;2023-05-10T00:39:25;31.93;30.53;35.90;;
67298;Laerm;65443;51.436;5.978;2023-05-10T00:39:36;31.64;30.02;37.25;;
67298;Laerm;65443;51.436;5.978;2023-05-10T00:39:46;31.60;30.36;37.60;;
67298;Laerm;65443;51.436;5.978;2023-05-10T00:39:57;31.57;30.05;35.41;;
67298;Laerm;65443;51.436;5.978;2023-05-10T00:40:07;31.79;30.54;34.99;;
67298;Laerm;65443;51.436;5.978;2023-05-10T00:40:17;31.81;30.27;45.78;;
67298;Laerm;65443;51.436;5.978;2023-05-10T00:40:28;31.35;29.89;38.70;;
67298;Laerm;65443;51.436;5.978;2023-05-10T00:40:38;31.18;29.82;35.47;;
67298;Laerm;65443;51.436;5.978;2023-05-10T00:40:49;31.13;29.52;36.80;;
67298;Laerm;65443;51.436;5.978;2023-05-10T00:40:59;31.38;29.46;38.69;;
67298;Laerm;65443;51.436;5.978;2023-05-10T00:41:10;31.21;29.97;38.23;;
67298;Laerm;65443;51.436;5.978;2023-05-10T00:41:20;30.92;29.75;35.73;;
67298;Laerm;65443;51.436;5.978;2023-05-10T00:41:31;31.03;29.79;34.94;;
67298;Laerm;65443;51.436;5.978;2023-05-10T00:41:42;30.80;29.54;34.58;;
67298;Laerm;65443;51.436;5.978;2023-05-10T00:41:53;30.76;29.45;34.36;;
67298;Laerm;65443;51.436;5.978;2023-05-10T00:42:03;30.85;29.77;33.25;;
67298;Laerm;65443;51.436;5.978;2023-05-10T00:42:14;31.21;29.73;43.83;;
67298;Laerm;65443;51.436;5.978;2023-05-10T00:42:24;31.12;29.80;36.66;;
67298;Laerm;65443;51.436;5.978;2023-05-10T00:42:35;31.13;30.00;32.93;;
67298;Laerm;65443;51.436;5.978;2023-05-10T00:42:45;31.42;30.03;38.80;;
67298;Laerm;65443;51.436;5.978;2023-05-10T00:42:56;31.07;29.88;35.77;;
67298;Laerm;65443;51.436;5.978;2023-05-10T00:43:06;31.38;29.78;38.76;;
67298;Laerm;65443;51.436;5.978;2023-05-10T00:43:16;31.11;29.53;36.22;;
67298;Laerm;65443;51.436;5.978;2023-05-10T00:43:27;31.02;29.69;37.77;;
67298;Laerm;65443;51.436;5.978;2023-05-10T00:43:37;30.58;29.13;32.83;;
67298;Laerm;65443;51.436;5.978;2023-05-10T00:43:47;30.88;29.03;39.77;;
67298;Laerm;65443;51.436;5.978;2023-05-10T00:43:58;30.67;29.60;33.33;;
67298;Laerm;65443;51.436;5.978;2023-05-10T00:44:08;31.02;29.91;35.17;;
67298;Laerm;65443;51.436;5.978;2023-05-10T00:44:19;31.20;30.05;37.36;;
67298;Laerm;65443;51.436;5.978;2023-05-10T00:44:29;60.32;29.95;70.81;;
67298;Laerm;65443;51.436;5.978;2023-05-10T00:44:40;66.75;60.04;71.13;;
67298;Laerm;65443;51.436;5.978;2023-05-10T00:44:51;62.79;57.71;65.93;;
67298;Laerm;65443;51.436;5.978;2023-05-10T00:45:01;63.14;57.41;67.32;;
67298;Laerm;65443;51.436;5.978;2023-05-10T00:45:11;64.66;59.27;67.70;;
67298;Laerm;65443;51.436;5.978;2023-05-10T00:45:22;70.31;59.47;80.45;;
67298;Laerm;65443;51.436;5.978;2023-05-10T00:45:33;77.30;73.39;81.18;;
67298;Laerm;65443;51.436;5.978;2023-05-10T00:45:46;80.35;59.23;88.04;;
67298;Laerm;65443;51.436;5.978;2023-05-10T00:45:56;54.97;42.00;66.34;;
67298;Laerm;65443;51.436;5.978;2023-05-10T00:46:07;38.90;34.27;43.30;;
67298;Laerm;65443;51.436;5.978;2023-05-10T00:46:17;34.44;32.85;35.63;;
67298;Laerm;65443;51.436;5.978;2023-05-10T00:46:28;33.73;32.16;38.46;;
67298;Laerm;65443;51.436;5.978;2023-05-10T00:46:38;33.26;31.46;35.16;;
67298;Laerm;65443;51.436;5.978;2023-05-10T00:46:48;32.96;31.38;37.07;;
67298;Laerm;65443;51.436;5.978;2023-05-10T00:46:59;32.67;31.31;35.51;;
67298;Laerm;65443;51.436;5.978;2023-05-10T00:47:10;32.70;30.98;36.63;;
67298;Laerm;65443;51.436;5.978;2023-05-10T00:47:22;33.07;30.21;46.99;;
67298;Laerm;65443;51.436;5.978;2023-05-10T00:47:32;31.59;29.92;33.96;;
67298;Laerm;65443;51.436;5.978;2023-05-10T00:47:42;30.89;29.55;34.62;;
67298;Laerm;65443;51.436;5.978;2023-05-10T00:47:53;30.86;29.69;32.71;;
67298;Laerm;65443;51.436;5.978;2023-05-10T00:48:05;31.22;29.55;39.20;;
67298;Laerm;65443;51.436;5.978;2023-05-10T00:48:15;30.90;29.47;34.85;;
67298;Laerm;65443;51.436;5.978;2023-05-10T00:48:26;30.95;29.74;40.04;;
67298;Laerm;65443;51.436;5.978;2023-05-10T00:48:36;30.82;29.60;34.69;;
67298;Laerm;65443;51.436;5.978;2023-05-10T00:48:46;30.81;29.46;36.10;;
67298;Laerm;65443;51.436;5.978;2023-05-10T00:48:57;30.67;29.32;32.93;;
67298;Laerm;65443;51.436;5.978;2023-05-10T00:49:07;30.70;29.26;37.76;;
67298;Laerm;65443;51.436;5.978;2023-05-10T00:49:18;30.58;29.39;33.85;;
67298;Laerm;65443;51.436;5.978;2023-05-10T00:49:29;30.88;29.69;35.20;;
67298;Laerm;65443;51.436;5.978;2023-05-10T00:49:39;30.77;29.40;38.16;;
67298;Laerm;65443;51.436;5.978;2023-05-10T00:49:50;31.09;29.34;45.38;;
67298;Laerm;65443;51.436;5.978;2023-05-10T00:50:01;30.80;29.48;33.15;;
67298;Laerm;65443;51.436;5.978;2023-05-10T00:50:12;30.94;29.41;39.64;;
67298;Laerm;65443;51.436;5.978;2023-05-10T00:50:23;30.77;29.54;36.55;;
67298;Laerm;65443;51.436;5.978;2023-05-10T00:50:33;30.83;29.38;32.55;;
67298;Laerm;65443;51.436;5.978;2023-05-10T00:50:43;30.78;29.57;32.60;;
67298;Laerm;65443;51.436;5.978;2023-05-10T00:50:54;30.75;29.13;40.57;;
67298;Laerm;65443;51.436;5.978;2023-05-10T00:51:05;61.75;29.37;70.81;;
67298;Laerm;65443;51.436;5.978;2023-05-10T00:51:16;66.07;57.44;71.24;;
67298;Laerm;65443;51.436;5.978;2023-05-10T00:51:26;61.68;56.32;65.92;;
67298;Laerm;65443;51.436;5.978;2023-05-10T00:51:36;64.02;58.29;67.16;;
67298;Laerm;65443;51.436;5.978;2023-05-10T00:51:47;64.83;60.21;67.50;;
67298;Laerm;65443;51.436;5.978;2023-05-10T00:51:57;79.23;61.18;84.25;;
67298;Laerm;65443;51.436;5.978;2023-05-10T00:52:08;81.96;78.75;86.96;;
67298;Laerm;65443;51.436;5.978;2023-05-10T00:52:19;76.48;50.26;83.51;;
67298;Laerm;65443;51.436;5.978;2023-05-10T00:52:29;45.45;38.63;50.55;;
67298;Laerm;65443;51.436;5.978;2023-05-10T00:52:40;37.04;34.19;40.39;;
67298;Laerm;65443;51.436;5.978;2023-05-10T00:52:50;34.46;32.35;36.36;;
67298;Laerm;65443;51.436;5.978;2023-05-10T00:53:01;33.54;32.08;35.13;;
67298;Laerm;65443;51.436;5.978;2023-05-10T00:53:12;34.27;32.98;38.26;;
67298;Laerm;65443;51.436;5.978;2023-05-10T00:53:23;33.92;32.38;36.48;;
67298;Laerm;65443;51.436;5.978;2023-05-10T00:53:33;33.77;31.58;38.43;;
67298;Laerm;65443;51.436;5.978;2023-05-10T00:53:47;33.09;31.19;38.16;;
67298;Laerm;65443;51.436;5.978;2023-05-10T00:53:58;34.03;30.57;46.75;;
67298;Laerm;65443;51.436;5.978;2023-05-10T00:54:09;31.55;30.36;35.74;;
67298;Laerm;65443;51.436;5.978;2023-05-10T00:54:21;32.43;29.96;43.95;;
67298;Laerm;65443;51.436;5.978;2023-05-10T00:54:31;31.82;29.70;38.29;;
67298;Laerm;65443;51.436;5.978;2023-05-10T00:54:41;32.07;30.38;37.65;;
67298;Laerm;65443;51.436;5.978;2023-05-10T00:54:52;31.94;30.05;36.84;;
67298;Laerm;65443;51.436;5.978;2023-05-10T00:55:02;33.13;30.72;38.77;;
67298;Laerm;65443;51.436;5.978;2023-05-10T00:55:14;35.60;32.41;38.64;;
67298;Laerm;65443;51.436;5.978;2023-05-10T00:55:24;34.44;31.55;41.79;;
67298;Laerm;65443;51.436;5.978;2023-05-10T00:55:34;32.92;31.80;35.55;;
67298;Laerm;65443;51.436;5.978;2023-05-10T00:55:45;33.14;31.80;38.00;;
67298;Laerm;65443;51.436;5.978;2023-05-10T00:55:55;35.43;31.78;42.78;;
67298;Laerm;65443;51.436;5.978;2023-05-10T00:56:05;54.71;34.70;63.49;;
67298;Laerm;65443;51.436;5.978;2023-05-10T00:56:16;67.32;40.74;74.80;;
67298;Laerm;65443;51.436;5.978;2023-05-10T00:56:26;39.45;35.39;42.30;;
67298;Laerm;65443;51.436;5.978;2023-05-10T00:56:38;35.01;32.70;36.88;;
67298;Laerm;65443;51.436;5.978;2023-05-10T00:56:49;33.21;31.32;35.24;;
67298;Laerm;65443;51.436;5.978;2023-05-10T00:57:00;32.31;30.86;35.99;;
67298;Laerm;65443;51.436;5.978;2023-05-10T00:57:10;32.10;30.62;39.71;;
67298;Laerm;65443;51.436;5.978;2023-05-10T00:57:21;31.51;29.96;39.61;;
67298;Laerm;65443;51.436;5.978;2023-05-10T00:57:31;31.63;30.36;36.07;;
67298;Laerm;65443;51.436;5.978;2023-05-10T00:57:41;31.04;29.50;33.96;;
67298;Laerm;65443;51.436;5.978;2023-05-10T00:57:52;31.16;29.80;33.19;;
67298;Laerm;65443;51.436;5.978;2023-05-10T00:58:03;31.58;30.46;38.86;;
67298;Laerm;65443;51.436;5.978;2023-05-10T00:58:14;31.42;29.62;33.84;;
67298;Laerm;65443;51.436;5.978;2023-05-10T00:58:25;31.61;30.31;39.91;;
67298;Laerm;65443;51.436;5.978;2023-05-10T00:58:39;31.24;29.91;34.34;;